createdAt,value
2019-01-19T00:00:30.816Z,54.08
2019-01-19T00:01:06.462Z,53.80
2019-01-19T00:01:42.091Z,53.89
2019-01-19T00:02:17.679Z,52.95
2019-01-19T00:02:53.199Z,52.38
2019-01-19T00:03:28.507Z,53.05
2019-01-19T00:04:03.721Z,52.67
2019-01-19T00:04:38.931Z,52.76
2019-01-19T00:05:14.259Z,51.72
2019-01-19T00:05:49.584Z,52.38
2019-01-19T00:06:24.838Z,51.06
2019-01-19T00:07:00.012Z,52.29
2019-01-19T00:07:35.225Z,53.80
2019-01-19T00:08:10.736Z,54.18
2019-01-19T00:08:46.143Z,54.27
2019-01-19T00:09:21.760Z,54.55
2019-01-19T00:09:56.955Z,54.08
2019-01-19T00:10:32.368Z,52.67
2019-01-19T00:11:07.684Z,52.10
2019-01-19T00:11:43.004Z,51.34
2019-01-19T00:12:18.198Z,50.11
2019-01-19T00:12:53.513Z,50.40
2019-01-19T00:13:28.899Z,51.43
2019-01-19T00:14:04.422Z,50.02
2019-01-19T00:14:39.858Z,50.87
2019-01-19T00:15:14.939Z,50.68
2019-01-19T00:15:50.305Z,51.43
2019-01-19T00:16:25.618Z,50.49
2019-01-19T00:17:00.946Z,52.10
2019-01-19T00:17:36.419Z,51.15
2019-01-19T00:18:11.919Z,51.72
2019-01-19T00:18:47.041Z,52.10
2019-01-19T00:19:22.463Z,50.21
2019-01-19T00:19:57.531Z,48.60
2019-01-19T00:20:32.749Z,49.26
2019-01-19T00:21:08.193Z,47.47
2019-01-19T00:21:43.525Z,47.66
2019-01-19T00:22:18.961Z,49.54
2019-01-19T00:22:54.249Z,49.16
2019-01-19T00:23:29.458Z,50.59
2019-01-19T00:24:04.853Z,50.49
2019-01-19T00:24:40.071Z,50.68
2019-01-19T00:25:15.461Z,51.13
2019-01-19T00:25:50.883Z,49.45
2019-01-19T00:26:25.881Z,49.54
2019-01-19T00:27:01.107Z,49.07
2019-01-19T00:27:36.616Z,48.22
2019-01-19T00:28:11.828Z,49.54
2019-01-19T00:28:47.143Z,49.90
2019-01-19T00:29:22.436Z,49.99
2019-01-19T00:29:57.748Z,49.83
2019-01-19T00:30:33.248Z,49.24
2019-01-19T00:31:08.682Z,49.54
2019-01-19T00:31:44.278Z,50.40
2019-01-19T00:32:19.389Z,51.50
2019-01-19T00:32:54.878Z,51.41
2019-01-19T00:33:30.285Z,50.37
2019-01-19T00:34:05.558Z,48.95
2019-01-19T00:34:41.074Z,47.85
2019-01-19T00:35:17.949Z,49.16
2019-01-19T00:35:52.103Z,49.43
2019-01-19T00:36:27.623Z,49.33
2019-01-19T00:37:03.019Z,49.73
2019-01-19T00:37:38.144Z,47.75
2019-01-19T00:38:13.418Z,49.24
2019-01-19T00:38:48.923Z,49.33
2019-01-19T00:39:24.323Z,47.47
2019-01-19T00:39:59.653Z,48.22
2019-01-19T00:40:34.832Z,48.32
2019-01-19T00:41:10.633Z,48.03
2019-01-19T00:41:45.960Z,49.52
2019-01-19T00:42:21.149Z,49.26
2019-01-19T00:42:56.674Z,49.05
2019-01-19T00:43:31.973Z,49.71
2019-01-19T00:44:07.268Z,49.71
2019-01-19T00:44:42.383Z,49.71
2019-01-19T00:45:18.097Z,50.46
2019-01-19T00:45:53.413Z,51.03
2019-01-19T00:46:28.846Z,50.84
2019-01-19T00:47:04.183Z,50.65
2019-01-19T00:47:40.003Z,49.90
2019-01-19T00:48:15.300Z,49.14
2019-01-19T00:48:50.432Z,49.05
2019-01-19T00:49:26.050Z,48.86
2019-01-19T00:50:01.354Z,48.29
2019-01-19T00:50:36.562Z,47.44
2019-01-19T00:51:11.783Z,47.44
2019-01-19T00:51:47.487Z,47.53
2019-01-19T00:52:22.864Z,47.34
2019-01-19T00:52:58.573Z,46.31
2019-01-19T00:53:33.870Z,47.34
2019-01-19T00:54:09.284Z,47.91
2019-01-19T00:54:44.760Z,48.48
2019-01-19T00:55:20.063Z,49.71
2019-01-19T00:55:55.696Z,50.21
2019-01-19T00:56:31.273Z,50.84
2019-01-19T00:57:06.690Z,49.99
2019-01-19T00:57:42.089Z,50.37
2019-01-19T00:58:17.391Z,49.90
2019-01-19T00:58:52.785Z,49.62
2019-01-19T00:59:28.009Z,48.39
2019-01-19T01:00:03.208Z,48.29
2019-01-19T01:00:38.648Z,47.82
2019-01-19T01:01:14.065Z,47.53
2019-01-19T01:01:49.287Z,46.02
2019-01-19T01:02:24.516Z,45.93
2019-01-19T01:02:59.909Z,45.45
2019-01-19T01:03:35.128Z,45.45
2019-01-19T01:04:10.738Z,47.06
2019-01-19T01:04:46.455Z,47.16
2019-01-19T01:05:25.223Z,47.44
2019-01-19T01:05:56.799Z,47.25
2019-01-19T01:06:31.983Z,48.20
2019-01-19T01:07:07.227Z,49.24
2019-01-19T01:07:43.026Z,48.86
2019-01-19T01:08:18.132Z,48.48
2019-01-19T01:08:53.560Z,48.10
2019-01-19T01:09:28.848Z,49.24
2019-01-19T01:10:04.169Z,48.39
2019-01-19T01:10:39.369Z,47.44
2019-01-19T01:11:14.809Z,47.06
2019-01-19T01:11:50.097Z,46.40
2019-01-19T01:12:25.700Z,45.83
2019-01-19T01:13:00.988Z,46.50
2019-01-19T01:13:36.504Z,46.88
2019-01-19T01:14:11.582Z,46.31
2019-01-19T01:14:46.997Z,47.06
2019-01-19T01:15:22.383Z,46.31
2019-01-19T01:15:57.708Z,45.83
2019-01-19T01:16:33.351Z,45.45
2019-01-19T01:17:08.521Z,46.12
2019-01-19T01:17:43.728Z,46.78
2019-01-19T01:18:19.029Z,46.21
2019-01-19T01:18:54.356Z,46.21
2019-01-19T01:19:29.650Z,45.08
2019-01-19T01:20:05.067Z,45.93
2019-01-19T01:20:40.351Z,45.83
2019-01-19T01:21:15.598Z,44.79
2019-01-19T01:21:50.881Z,43.85
2019-01-19T01:22:26.499Z,42.71
2019-01-19T01:23:01.909Z,44.32
2019-01-19T01:23:37.307Z,45.93
2019-01-19T01:24:12.809Z,46.59
2019-01-19T01:24:48.020Z,47.25
2019-01-19T01:25:23.530Z,47.16
2019-01-19T01:25:58.928Z,47.44
2019-01-19T01:26:34.447Z,46.97
2019-01-19T01:27:10.132Z,47.72
2019-01-19T01:27:46.113Z,47.53
2019-01-19T01:28:21.401Z,46.97
2019-01-19T01:28:56.609Z,47.16
2019-01-19T01:29:31.832Z,46.02
2019-01-19T01:30:07.309Z,44.42
2019-01-19T01:30:42.716Z,45.08
2019-01-19T01:31:17.849Z,43.28
2019-01-19T01:31:53.155Z,41.39
2019-01-19T01:32:28.351Z,40.73
2019-01-19T01:33:03.667Z,40.16
2019-01-19T01:33:39.068Z,40.92
2019-01-19T01:34:14.487Z,42.52
2019-01-19T01:34:49.875Z,44.32
2019-01-19T01:35:32.428Z,43.38
2019-01-19T01:36:00.499Z,43.76
2019-01-19T01:36:36.017Z,44.13
2019-01-19T01:37:11.515Z,44.89
2019-01-19T01:37:46.806Z,45.08
2019-01-19T01:38:22.113Z,46.21
2019-01-19T01:38:57.499Z,45.55
2019-01-19T01:39:33.021Z,44.89
2019-01-19T01:40:08.407Z,45.27
2019-01-19T01:40:44.059Z,44.89
2019-01-19T01:41:19.578Z,46.02
2019-01-19T01:41:54.990Z,45.74
2019-01-19T01:42:30.435Z,45.83
2019-01-19T01:43:05.854Z,44.32
2019-01-19T01:43:41.276Z,45.08
2019-01-19T01:44:16.791Z,43.95
2019-01-19T01:44:52.213Z,43.19
2019-01-19T01:45:27.288Z,42.90
2019-01-19T01:46:03.146Z,43.85
2019-01-19T01:46:38.743Z,43.00
2019-01-19T01:47:14.196Z,42.71
2019-01-19T01:47:49.260Z,42.52
2019-01-19T01:48:24.665Z,43.00
2019-01-19T01:48:59.841Z,44.23
2019-01-19T01:49:35.246Z,44.13
2019-01-19T01:50:10.565Z,45.64
2019-01-19T01:50:45.685Z,45.74
2019-01-19T01:51:21.089Z,45.17
2019-01-19T01:51:56.180Z,45.08
2019-01-19T01:52:31.387Z,45.74
2019-01-19T01:53:07.081Z,46.31
2019-01-19T01:53:42.290Z,47.44
2019-01-19T01:54:17.389Z,48.01
2019-01-19T01:54:52.722Z,47.82
2019-01-19T01:55:28.140Z,47.53
2019-01-19T01:56:03.662Z,47.53
2019-01-19T01:56:38.781Z,46.97
2019-01-19T01:57:14.252Z,46.12
2019-01-19T01:57:49.660Z,47.63
2019-01-19T01:58:24.747Z,47.44
2019-01-19T01:59:00.173Z,46.69
2019-01-19T01:59:35.562Z,45.55
2019-01-19T02:00:11.370Z,45.64
2019-01-19T02:00:46.780Z,44.98
2019-01-19T02:01:22.406Z,45.08
2019-01-19T02:01:57.591Z,46.59
2019-01-19T02:02:32.815Z,45.83
2019-01-19T02:03:08.234Z,45.83
2019-01-19T02:03:43.852Z,45.64
2019-01-19T02:04:19.177Z,45.64
2019-01-19T02:04:54.776Z,47.16
2019-01-19T02:05:30.091Z,46.31
2019-01-19T02:06:05.415Z,47.06
2019-01-19T02:06:40.543Z,46.97
2019-01-19T02:07:16.031Z,45.83
2019-01-19T02:07:51.640Z,46.02
2019-01-19T02:08:26.945Z,46.12
2019-01-19T02:09:02.043Z,47.06
2019-01-19T02:09:37.458Z,46.59
2019-01-19T02:10:12.546Z,47.25
2019-01-19T02:10:48.005Z,47.16
2019-01-19T02:11:23.386Z,46.78
2019-01-19T02:11:58.610Z,46.97
2019-01-19T02:12:34.002Z,46.97
2019-01-19T02:13:09.409Z,48.29
2019-01-19T02:13:44.607Z,48.20
2019-01-19T02:14:20.117Z,48.48
2019-01-19T02:14:55.517Z,48.39
2019-01-19T02:15:31.034Z,47.44
2019-01-19T02:16:06.540Z,48.01
2019-01-19T02:16:41.991Z,48.39
2019-01-19T02:17:17.210Z,48.29
2019-01-19T02:17:52.300Z,48.29
2019-01-19T02:18:27.404Z,48.67
2019-01-19T02:19:02.893Z,49.24
2019-01-19T02:19:38.100Z,47.91
2019-01-19T02:20:13.491Z,48.67
2019-01-19T02:20:48.730Z,47.91
2019-01-19T02:21:23.912Z,48.48
2019-01-19T02:21:59.531Z,48.29
2019-01-19T02:22:34.820Z,47.82
2019-01-19T02:23:10.249Z,46.78
2019-01-19T02:23:45.459Z,46.31
2019-01-19T02:24:20.551Z,46.31
2019-01-19T02:24:55.964Z,46.97
2019-01-19T02:25:31.243Z,47.25
2019-01-19T02:26:06.667Z,47.44
2019-01-19T02:26:41.757Z,46.50
2019-01-19T02:27:17.076Z,46.97
2019-01-19T02:27:52.482Z,46.21
2019-01-19T02:28:27.600Z,45.74
2019-01-19T02:29:03.208Z,44.98
2019-01-19T02:29:39.546Z,46.02
2019-01-19T02:30:14.769Z,46.12
2019-01-19T02:30:50.193Z,44.42
2019-01-19T02:31:25.519Z,44.70
2019-01-19T02:32:00.986Z,45.08
2019-01-19T02:32:36.388Z,45.93
2019-01-19T02:33:11.577Z,45.64
2019-01-19T02:33:46.905Z,45.74
2019-01-19T02:34:22.387Z,42.71
2019-01-19T02:34:58.009Z,42.24
2019-01-19T02:35:33.394Z,42.15
2019-01-19T02:36:08.850Z,42.62
2019-01-19T02:36:44.467Z,44.42
2019-01-19T02:37:19.767Z,47.06
2019-01-19T02:37:55.305Z,46.59
2019-01-19T02:38:30.991Z,46.12
2019-01-19T02:39:06.204Z,44.98
2019-01-19T02:39:41.677Z,44.04
2019-01-19T02:40:17.108Z,43.09
2019-01-19T02:40:52.527Z,42.62
2019-01-19T02:41:27.755Z,44.04
2019-01-19T02:42:03.344Z,46.12
2019-01-19T02:42:38.557Z,47.06
2019-01-19T02:43:13.956Z,48.20
2019-01-19T02:43:49.163Z,47.82
2019-01-19T02:44:24.390Z,47.16
2019-01-19T02:44:59.831Z,46.40
2019-01-19T02:45:35.248Z,45.64
2019-01-19T02:46:10.787Z,45.83
2019-01-19T02:46:46.106Z,47.25
2019-01-19T02:47:21.496Z,47.16
2019-01-19T02:47:56.914Z,46.69
2019-01-19T02:48:32.234Z,48.01
2019-01-19T02:49:07.754Z,49.43
2019-01-19T02:49:42.993Z,49.52
2019-01-19T02:50:18.490Z,49.33
2019-01-19T02:50:54.160Z,48.39
2019-01-19T02:51:29.360Z,48.10
2019-01-19T02:52:04.875Z,48.20
2019-01-19T02:52:40.158Z,48.10
2019-01-19T02:53:15.470Z,49.62
2019-01-19T02:53:51.069Z,50.09
2019-01-19T02:54:26.688Z,50.65
2019-01-19T02:55:02.196Z,51.22
2019-01-19T02:55:37.982Z,51.22
2019-01-19T02:56:13.703Z,50.27
2019-01-19T02:56:49.220Z,49.99
2019-01-19T02:57:24.642Z,49.24
2019-01-19T02:58:00.141Z,49.14
2019-01-19T02:58:35.463Z,49.52
2019-01-19T02:59:10.944Z,50.18
2019-01-19T02:59:46.167Z,49.05
2019-01-19T03:00:21.577Z,49.43
2019-01-19T03:00:57.241Z,49.90
2019-01-19T03:01:32.941Z,50.18
2019-01-19T03:02:08.450Z,51.50
2019-01-19T03:02:43.847Z,51.60
2019-01-19T03:03:19.180Z,50.94
2019-01-19T03:03:54.726Z,50.75
2019-01-19T03:04:30.151Z,49.99
2019-01-19T03:05:05.742Z,50.37
2019-01-19T03:05:41.038Z,48.86
2019-01-19T03:06:16.280Z,48.01
2019-01-19T03:06:51.707Z,48.10
2019-01-19T03:07:27.028Z,48.86
2019-01-19T03:08:02.412Z,49.52
2019-01-19T03:08:37.822Z,49.52
2019-01-19T03:09:13.227Z,48.57
2019-01-19T03:09:50.049Z,47.63
2019-01-19T03:10:23.774Z,46.97
2019-01-19T03:10:59.281Z,46.78
2019-01-19T03:11:34.586Z,47.72
2019-01-19T03:12:09.686Z,48.01
2019-01-19T03:12:45.338Z,49.71
2019-01-19T03:13:20.752Z,49.90
2019-01-19T03:13:56.088Z,48.76
2019-01-19T03:14:31.507Z,50.75
2019-01-19T03:15:07.225Z,50.75
2019-01-19T03:15:42.619Z,49.90
2019-01-19T03:16:18.370Z,48.76
2019-01-19T03:16:53.819Z,49.62
2019-01-19T03:17:29.011Z,48.67
2019-01-19T03:18:04.429Z,47.34
2019-01-19T03:18:39.738Z,48.39
2019-01-19T03:19:15.264Z,49.71
2019-01-19T03:19:50.543Z,50.27
2019-01-19T03:20:26.066Z,49.24
2019-01-19T03:21:01.485Z,49.14
2019-01-19T03:21:36.697Z,48.29
2019-01-19T03:22:11.907Z,45.64
2019-01-19T03:22:47.134Z,44.23
2019-01-19T03:23:22.466Z,45.08
2019-01-19T03:23:57.766Z,44.98
2019-01-19T03:24:33.087Z,45.64
2019-01-19T03:25:08.455Z,46.02
2019-01-19T03:25:44.105Z,44.42
2019-01-19T03:26:19.803Z,43.76
2019-01-19T03:26:55.137Z,43.85
2019-01-19T03:27:30.429Z,47.53
2019-01-19T03:28:05.835Z,49.62
2019-01-19T03:28:41.342Z,51.22
2019-01-19T03:29:16.653Z,51.13
2019-01-19T03:29:51.981Z,50.84
2019-01-19T03:30:27.481Z,49.90
2019-01-19T03:31:03.373Z,50.65
2019-01-19T03:31:38.746Z,51.41
2019-01-19T03:32:13.976Z,50.94
2019-01-19T03:32:49.171Z,49.80
2019-01-19T03:33:24.684Z,49.71
2019-01-19T03:33:59.880Z,48.67
2019-01-19T03:34:35.295Z,49.24
2019-01-19T03:35:10.513Z,48.95
2019-01-19T03:35:45.953Z,46.78
2019-01-19T03:36:21.443Z,45.83
2019-01-19T03:36:56.882Z,45.55
2019-01-19T03:37:32.126Z,44.32
2019-01-19T03:38:07.522Z,42.90
2019-01-19T03:38:43.035Z,42.71
2019-01-19T03:39:18.633Z,43.57
2019-01-19T03:39:53.936Z,44.42
2019-01-19T03:40:29.138Z,43.47
2019-01-19T03:41:04.474Z,42.62
2019-01-19T03:41:39.860Z,43.76
2019-01-19T03:42:15.089Z,45.08
2019-01-19T03:42:50.370Z,44.79
2019-01-19T03:43:25.481Z,42.71
2019-01-19T03:44:00.617Z,42.43
2019-01-19T03:44:35.697Z,42.34
2019-01-19T03:45:10.824Z,41.20
2019-01-19T03:45:46.436Z,41.02
2019-01-19T03:46:21.841Z,40.54
2019-01-19T03:46:57.531Z,41.67
2019-01-19T03:47:33.162Z,42.81
2019-01-19T03:48:08.454Z,43.28
2019-01-19T03:48:43.876Z,44.98
2019-01-19T03:49:19.368Z,44.32
2019-01-19T03:49:54.780Z,44.42
2019-01-19T03:50:30.065Z,42.43
2019-01-19T03:51:05.566Z,42.62
2019-01-19T03:51:41.001Z,40.64
2019-01-19T03:52:16.204Z,39.50
2019-01-19T03:52:51.630Z,39.59
2019-01-19T03:53:26.718Z,40.73
2019-01-19T03:54:02.044Z,42.34
2019-01-19T03:54:37.569Z,42.15
2019-01-19T03:55:12.592Z,41.58
2019-01-19T03:55:47.799Z,42.71
2019-01-19T03:56:23.302Z,43.09
2019-01-19T03:56:58.626Z,42.24
2019-01-19T03:57:33.621Z,41.86
2019-01-19T03:58:08.875Z,41.11
2019-01-19T03:58:44.167Z,40.16
2019-01-19T03:59:19.369Z,39.40
2019-01-19T03:59:54.807Z,37.99
2019-01-19T04:00:30.121Z,40.35
2019-01-19T04:01:05.441Z,41.30
2019-01-19T04:01:40.658Z,41.49
2019-01-19T04:02:15.949Z,41.30
2019-01-19T04:02:51.165Z,40.83
2019-01-19T04:03:26.796Z,41.77
2019-01-19T04:04:01.998Z,42.24
2019-01-19T04:04:37.517Z,41.20
2019-01-19T04:05:13.110Z,39.78
2019-01-19T04:05:48.580Z,38.65
2019-01-19T04:06:24.180Z,38.84
2019-01-19T04:06:59.613Z,37.61
2019-01-19T04:07:34.902Z,37.71
2019-01-19T04:08:10.317Z,35.72
2019-01-19T04:08:45.531Z,35.63
2019-01-19T04:09:20.942Z,34.59
2019-01-19T04:09:56.239Z,35.72
2019-01-19T04:10:31.566Z,35.44
2019-01-19T04:11:07.122Z,33.92
2019-01-19T04:11:42.505Z,32.89
2019-01-19T04:12:17.718Z,34.68
2019-01-19T04:12:53.024Z,34.49
2019-01-19T04:13:28.741Z,33.54
2019-01-19T04:14:04.238Z,33.64
2019-01-19T04:14:39.858Z,35.16
2019-01-19T04:15:15.268Z,36.10
2019-01-19T04:15:50.503Z,36.57
2019-01-19T04:16:26.014Z,36.00
2019-01-19T04:17:01.341Z,35.25
2019-01-19T04:17:36.668Z,34.02
2019-01-19T04:18:11.768Z,33.07
2019-01-19T04:18:47.304Z,33.73
2019-01-19T04:19:22.817Z,34.97
2019-01-19T04:19:58.247Z,35.44
2019-01-19T04:20:33.433Z,36.19
2019-01-19T04:21:09.085Z,36.00
2019-01-19T04:21:44.185Z,35.25
2019-01-19T04:22:19.702Z,35.82
2019-01-19T04:22:54.895Z,36.66
2019-01-19T04:23:29.915Z,36.29
2019-01-19T04:24:05.468Z,36.10
2019-01-19T04:24:40.855Z,36.38
2019-01-19T04:25:16.269Z,37.99
2019-01-19T04:25:51.585Z,38.46
2019-01-19T04:26:27.007Z,36.95
2019-01-19T04:27:02.541Z,36.00
2019-01-19T04:27:37.963Z,36.76
2019-01-19T04:28:13.357Z,36.85
2019-01-19T04:28:48.785Z,37.52
2019-01-19T04:29:24.206Z,36.47
2019-01-19T04:29:59.734Z,37.99
2019-01-19T04:30:34.951Z,36.66
2019-01-19T04:31:10.583Z,34.78
2019-01-19T04:31:45.912Z,34.49
2019-01-19T04:32:21.108Z,35.82
2019-01-19T04:32:56.725Z,35.16
2019-01-19T04:33:32.024Z,35.35
2019-01-19T04:34:07.343Z,37.04
2019-01-19T04:34:42.633Z,36.29
2019-01-19T04:35:17.951Z,37.04
2019-01-19T04:35:53.390Z,37.99
2019-01-19T04:36:28.615Z,37.42
2019-01-19T04:37:03.934Z,37.33
2019-01-19T04:37:39.219Z,39.03
2019-01-19T04:38:14.696Z,40.64
2019-01-19T04:38:49.877Z,39.50
2019-01-19T04:39:25.128Z,37.33
2019-01-19T04:40:00.867Z,36.38
2019-01-19T04:40:36.393Z,34.49
2019-01-19T04:41:11.910Z,33.17
2019-01-19T04:41:47.122Z,33.64
2019-01-19T04:42:22.519Z,33.54
2019-01-19T04:42:57.749Z,34.11
2019-01-19T04:43:32.754Z,35.25
2019-01-19T04:44:08.017Z,34.78
2019-01-19T04:44:43.359Z,35.25
2019-01-19T04:45:19.005Z,36.57
2019-01-19T04:45:54.289Z,37.04
2019-01-19T04:46:29.587Z,37.90
2019-01-19T04:47:04.720Z,38.46
2019-01-19T04:47:40.009Z,37.33
2019-01-19T04:48:15.633Z,38.28
2019-01-19T04:48:51.324Z,37.33
2019-01-19T04:49:26.454Z,34.68
2019-01-19T04:50:01.745Z,35.82
2019-01-19T04:50:37.173Z,36.47
2019-01-19T04:51:12.541Z,37.04
2019-01-19T04:51:47.768Z,36.76
2019-01-19T04:52:23.392Z,37.61
2019-01-19T04:52:58.900Z,37.80
2019-01-19T04:53:34.212Z,36.57
2019-01-19T04:54:09.205Z,35.25
2019-01-19T04:54:44.521Z,34.97
2019-01-19T04:55:20.360Z,33.83
2019-01-19T04:55:55.684Z,34.68
2019-01-19T04:56:31.007Z,35.25
2019-01-19T04:57:06.239Z,36.38
2019-01-19T04:57:41.476Z,35.63
2019-01-19T04:58:16.680Z,35.82
2019-01-19T04:58:51.902Z,36.85
2019-01-19T04:59:27.406Z,36.29
2019-01-19T05:00:02.735Z,35.91
2019-01-19T05:00:38.062Z,36.29
2019-01-19T05:01:13.318Z,35.35
2019-01-19T05:01:48.805Z,34.87
2019-01-19T05:02:24.237Z,34.49
2019-01-19T05:02:59.430Z,35.63
2019-01-19T05:03:34.764Z,35.53
2019-01-19T05:04:10.314Z,35.72
2019-01-19T05:04:45.896Z,37.42
2019-01-19T05:05:21.211Z,38.09
2019-01-19T05:05:56.638Z,38.18
2019-01-19T05:06:32.171Z,37.90
2019-01-19T05:07:07.302Z,36.95
2019-01-19T05:07:42.827Z,37.14
2019-01-19T05:08:18.214Z,36.76
2019-01-19T05:08:53.533Z,36.38
2019-01-19T05:09:29.125Z,36.76
2019-01-19T05:10:04.446Z,37.80
2019-01-19T05:10:39.666Z,37.04
2019-01-19T05:11:14.768Z,37.04
2019-01-19T05:11:50.482Z,37.23
2019-01-19T05:12:25.783Z,37.14
2019-01-19T05:13:01.168Z,37.99
2019-01-19T05:13:36.437Z,37.52
2019-01-19T05:14:12.215Z,37.23
2019-01-19T05:14:47.504Z,36.95
2019-01-19T05:15:22.929Z,36.95
2019-01-19T05:15:58.234Z,36.95
2019-01-19T05:16:33.344Z,36.38
2019-01-19T05:17:08.544Z,36.47
2019-01-19T05:17:43.957Z,36.47
2019-01-19T05:18:19.473Z,37.23
2019-01-19T05:18:54.658Z,39.12
2019-01-19T05:19:30.178Z,38.93
2019-01-19T05:20:05.287Z,39.40
2019-01-19T05:20:40.510Z,39.31
2019-01-19T05:21:15.822Z,39.78
2019-01-19T05:21:51.056Z,40.73
2019-01-19T05:22:26.697Z,40.45
2019-01-19T05:23:01.927Z,40.83
2019-01-19T05:23:37.515Z,40.45
2019-01-19T05:24:12.736Z,40.26
2019-01-19T05:24:48.373Z,39.50
2019-01-19T05:25:23.790Z,39.97
2019-01-19T05:25:59.243Z,40.26
2019-01-19T05:26:34.638Z,39.69
2019-01-19T05:27:10.155Z,40.64
2019-01-19T05:27:45.585Z,44.89
2019-01-19T05:28:20.906Z,44.51
2019-01-19T05:28:56.102Z,45.17
2019-01-19T05:29:31.664Z,43.95
2019-01-19T05:30:06.962Z,44.23
2019-01-19T05:30:42.602Z,43.28
2019-01-19T05:31:17.953Z,42.43
2019-01-19T05:31:53.454Z,41.49
2019-01-19T05:32:28.789Z,41.30
2019-01-19T05:33:03.874Z,42.24
2019-01-19T05:33:39.379Z,42.05
2019-01-19T05:34:14.561Z,42.62
2019-01-19T05:34:50.034Z,42.43
2019-01-19T05:35:25.566Z,43.28
2019-01-19T05:36:01.035Z,42.43
2019-01-19T05:36:38.428Z,45.08
2019-01-19T05:37:12.189Z,46.12
2019-01-19T05:37:47.723Z,47.25
2019-01-19T05:38:23.223Z,47.82
2019-01-19T05:38:58.737Z,49.71
2019-01-19T05:39:34.012Z,48.39
2019-01-19T05:40:09.235Z,46.40
2019-01-19T05:40:44.847Z,46.12
2019-01-19T05:41:20.064Z,45.08
2019-01-19T05:41:55.478Z,43.95
2019-01-19T05:42:30.813Z,45.55
2019-01-19T05:43:06.113Z,45.93
2019-01-19T05:43:41.528Z,47.25
2019-01-19T05:44:19.278Z,48.48
2019-01-19T05:44:54.461Z,49.33
2019-01-19T05:45:29.796Z,48.10
2019-01-19T05:46:05.138Z,47.82
2019-01-19T05:46:40.365Z,49.99
2019-01-19T05:47:15.572Z,50.18
2019-01-19T05:47:51.088Z,51.22
2019-01-19T05:48:26.389Z,51.60
2019-01-19T05:49:01.805Z,51.13
2019-01-19T05:49:37.531Z,52.92
2019-01-19T05:50:12.743Z,53.58
2019-01-19T05:50:47.926Z,52.07
2019-01-19T05:51:23.024Z,50.65
2019-01-19T05:51:58.453Z,50.75
2019-01-19T05:52:33.955Z,50.65
2019-01-19T05:53:09.368Z,51.03
2019-01-19T05:53:44.970Z,51.41
2019-01-19T05:54:20.396Z,49.80
2019-01-19T05:54:55.827Z,49.33
2019-01-19T05:55:31.165Z,49.14
2019-01-19T05:56:06.596Z,48.20
2019-01-19T05:56:42.015Z,49.33
2019-01-19T05:57:17.313Z,48.01
2019-01-19T05:57:52.513Z,47.53
2019-01-19T05:58:27.941Z,47.53
2019-01-19T05:59:03.454Z,47.91
2019-01-19T05:59:38.558Z,46.50
2019-01-19T06:00:13.955Z,45.08
2019-01-19T06:00:49.308Z,46.31
2019-01-19T06:01:24.615Z,47.63
2019-01-19T06:01:59.747Z,46.97
2019-01-19T06:02:35.037Z,47.25
2019-01-19T06:03:10.468Z,47.82
2019-01-19T06:03:45.767Z,47.91
2019-01-19T06:04:21.472Z,47.63
2019-01-19T06:04:57.002Z,49.05
2019-01-19T06:05:32.598Z,49.62
2019-01-19T06:06:07.889Z,48.57
2019-01-19T06:06:46.981Z,47.63
2019-01-19T06:07:19.101Z,47.53
2019-01-19T06:07:54.396Z,47.53
2019-01-19T06:08:29.912Z,47.34
2019-01-19T06:09:05.312Z,47.63
2019-01-19T06:09:40.623Z,47.53
2019-01-19T06:10:16.024Z,47.63
2019-01-19T06:10:51.371Z,46.50
2019-01-19T06:11:26.803Z,49.71
2019-01-19T06:12:02.417Z,49.90
2019-01-19T06:12:38.057Z,50.09
2019-01-19T06:13:13.356Z,49.52
2019-01-19T06:13:48.875Z,48.10
2019-01-19T06:14:24.073Z,49.05
2019-01-19T06:14:59.298Z,51.22
2019-01-19T06:15:34.497Z,51.03
2019-01-19T06:16:09.851Z,51.22
2019-01-19T06:16:45.260Z,49.43
2019-01-19T06:17:20.680Z,47.91
2019-01-19T06:17:55.808Z,48.29
2019-01-19T06:18:30.998Z,48.10
2019-01-19T06:19:06.619Z,46.40
2019-01-19T06:19:41.911Z,45.74
2019-01-19T06:20:17.578Z,43.66
2019-01-19T06:20:52.987Z,43.09
2019-01-19T06:21:28.509Z,45.08
2019-01-19T06:22:03.912Z,45.55
2019-01-19T06:22:39.443Z,46.12
2019-01-19T06:23:14.954Z,46.21
2019-01-19T06:23:50.269Z,46.88
2019-01-19T06:24:25.694Z,47.44
2019-01-19T06:25:00.917Z,48.01
2019-01-19T06:25:36.539Z,49.99
2019-01-19T06:26:12.151Z,48.86
2019-01-19T06:26:47.565Z,50.37
2019-01-19T06:27:22.869Z,51.41
2019-01-19T06:27:58.579Z,50.46
2019-01-19T06:28:33.779Z,47.82
2019-01-19T06:29:09.192Z,48.20
2019-01-19T06:29:44.477Z,46.97
2019-01-19T06:30:19.888Z,46.12
2019-01-19T06:30:55.311Z,47.53
2019-01-19T06:31:30.430Z,48.57
2019-01-19T06:32:05.749Z,47.63
2019-01-19T06:32:41.042Z,48.10
2019-01-19T06:33:16.463Z,47.63
2019-01-19T06:33:51.863Z,47.63
2019-01-19T06:34:27.192Z,46.97
2019-01-19T06:35:02.542Z,50.09
2019-01-19T06:35:38.022Z,48.86
2019-01-19T06:36:13.540Z,49.90
2019-01-19T06:36:54.859Z,52.45
2019-01-19T06:37:24.148Z,52.26
2019-01-19T06:37:59.658Z,51.88
2019-01-19T06:38:34.981Z,52.73
2019-01-19T06:39:10.289Z,52.55
2019-01-19T06:39:45.696Z,53.20
2019-01-19T06:40:21.087Z,52.36
2019-01-19T06:40:56.641Z,50.75
2019-01-19T06:41:32.333Z,50.27
2019-01-19T06:42:07.853Z,51.98
2019-01-19T06:42:43.453Z,51.32
2019-01-19T06:43:18.875Z,51.50
2019-01-19T06:43:53.910Z,52.36
2019-01-19T06:44:29.204Z,51.60
2019-01-19T06:45:04.671Z,51.32
2019-01-19T06:45:39.768Z,54.34
2019-01-19T06:46:15.201Z,53.96
2019-01-19T06:46:50.492Z,53.58
2019-01-19T06:47:25.705Z,53.11
2019-01-19T06:48:01.006Z,51.50
2019-01-19T06:48:36.436Z,50.46
2019-01-19T06:49:11.645Z,50.65
2019-01-19T06:49:47.177Z,50.94
2019-01-19T06:50:22.474Z,51.98
2019-01-19T06:50:57.711Z,53.96
2019-01-19T06:51:33.144Z,52.73
2019-01-19T06:52:08.446Z,52.07
2019-01-19T06:52:43.796Z,51.32
2019-01-19T06:53:19.293Z,50.75
2019-01-19T06:54:01.308Z,49.71
2019-01-19T06:54:29.858Z,49.71
2019-01-19T06:55:05.190Z,50.84
2019-01-19T06:55:40.476Z,50.56
2019-01-19T06:56:15.833Z,49.90
2019-01-19T06:56:51.228Z,51.13
2019-01-19T06:57:27.001Z,50.75
2019-01-19T06:58:01.734Z,48.48
2019-01-19T06:58:36.953Z,47.44
2019-01-19T06:59:17.327Z,47.82
2019-01-19T06:59:48.186Z,46.97
2019-01-19T07:00:23.425Z,47.25
2019-01-19T07:00:58.564Z,46.97
2019-01-19T07:01:33.792Z,46.31
2019-01-19T07:02:09.097Z,48.01
2019-01-19T07:02:44.324Z,47.06
2019-01-19T07:03:19.916Z,46.40
2019-01-19T07:03:55.136Z,46.88
2019-01-19T07:04:30.543Z,45.83
2019-01-19T07:05:05.960Z,43.95
2019-01-19T07:05:41.397Z,43.47
2019-01-19T07:06:16.529Z,42.90
2019-01-19T07:06:51.750Z,43.38
2019-01-19T07:07:27.352Z,41.30
2019-01-19T07:08:02.871Z,40.92
2019-01-19T07:08:38.173Z,43.00
2019-01-19T07:09:13.805Z,43.66
2019-01-19T07:09:49.214Z,43.57
2019-01-19T07:10:24.440Z,41.39
2019-01-19T07:10:59.713Z,42.90
2019-01-19T07:11:35.443Z,42.90
2019-01-19T07:12:10.816Z,43.09
2019-01-19T07:12:46.213Z,42.15
2019-01-19T07:13:21.342Z,41.96
2019-01-19T07:13:56.435Z,44.79
2019-01-19T07:14:31.638Z,44.60
2019-01-19T07:15:06.939Z,44.89
2019-01-19T07:15:42.191Z,44.89
2019-01-19T07:16:17.801Z,42.62
2019-01-19T07:16:53.133Z,42.52
2019-01-19T07:17:28.540Z,40.73
2019-01-19T07:18:03.954Z,40.54
2019-01-19T07:18:39.237Z,41.20
2019-01-19T07:19:14.971Z,41.30
2019-01-19T07:19:50.497Z,41.67
2019-01-19T07:20:25.722Z,41.02
2019-01-19T07:21:01.072Z,42.50
2019-01-19T07:21:36.375Z,42.15
2019-01-19T07:22:11.896Z,40.45
2019-01-19T07:22:47.180Z,40.73
2019-01-19T07:23:22.493Z,40.54
2019-01-19T07:23:57.687Z,39.69
2019-01-19T07:24:33.224Z,40.64
2019-01-19T07:25:08.428Z,39.59
2019-01-19T07:25:45.442Z,38.75
2019-01-19T07:26:19.300Z,37.99
2019-01-19T07:26:54.798Z,39.50
2019-01-19T07:27:30.208Z,39.86
2019-01-19T07:28:05.612Z,40.07
2019-01-19T07:28:41.127Z,40.73
2019-01-19T07:29:16.332Z,42.05
2019-01-19T07:29:51.450Z,42.90
2019-01-19T07:30:26.938Z,43.47
2019-01-19T07:31:02.274Z,43.47
2019-01-19T07:31:37.583Z,42.97
2019-01-19T07:32:13.003Z,41.56
2019-01-19T07:32:48.236Z,40.42
2019-01-19T07:33:23.852Z,39.22
2019-01-19T07:33:58.865Z,37.80
2019-01-19T07:34:34.268Z,36.66
2019-01-19T07:35:09.801Z,38.63
2019-01-19T07:35:45.116Z,39.50